Queen Isabella — A8IE2 — position and weather

sailwx.info

Track history (hours):
 
Tides and Currents Weather Stations Pressure Air Temp Water Temp Dewpoint Dewpoint Depression Visibility Wind Speed Wind Dir Waves Ship Positions

Queen Isabella

Last reported at 2017-Nov-17 00:23 UTC. Time now 2017-Nov-18 14:20 UTC.
Position N 35°58' W 005°36'.

Length 131 m; draft 6.3 m.

Type: Ship. MMSI: 636090959.

Date/timePositionNaut miles runAvg speedWind from/ knotsBaromVisibWave heightAir tempDewpointWater temp
2017-Nov-17 00:23N 35°58' W 005°36'411.9
2017-Nov-17 00:00N 35°59' W 005°30'611.0
2017-Nov-16 23:30N 36°02' W 005°25'3 2.0
2017-Nov-16 21:47N 36°06' W 005°25'229 9.2
2017-Nov-15 20:48N 37°20' W 000°54'513.0
2017-Nov-15 20:23N 37°23' W 000°49'512.8
2017-Nov-15 20:00N 37°26' W 000°45'1112.5
2017-Nov-15 19:08N 37°34' W 000°35'212.5
2017-Nov-15 19:00N 37°35' W 000°33'612.4
2017-Nov-15 18:30N 37°40' W 000°29'612.4
2017-Nov-15 18:00N 37°45' W 000°25'  
Track history (hours):
 
Tides and Currents Weather Stations Pressure Air Temp Water Temp Dewpoint Dewpoint Depression Visibility Wind Speed Wind Dir Waves Ship Positions

Queen Isabella

Last reported at 2017-Nov-17 00:23 UTC. Time now 2017-Nov-18 14:20 UTC.
Position N 35°58' W 005°36'.

Length 131 m; draft 6.3 m.

Type: Ship. MMSI: 636090959.

Date/timePositionNaut miles runAvg speedWind from/ knotsBaromVisibWave heightAir tempDewpointWater temp
2017-Nov-17 00:23N 35°58' W 005°36'411.9
2017-Nov-17 00:00N 35°59' W 005°30'611.0
2017-Nov-16 23:30N 36°02' W 005°25'3 2.0
2017-Nov-16 21:47N 36°06' W 005°25'229 9.2
2017-Nov-15 20:48N 37°20' W 000°54'513.0
2017-Nov-15 20:23N 37°23' W 000°49'512.8
2017-Nov-15 20:00N 37°26' W 000°45'1112.5
2017-Nov-15 19:08N 37°34' W 000°35'212.5
2017-Nov-15 19:00N 37°35' W 000°33'612.4
2017-Nov-15 18:30N 37°40' W 000°29'612.4
2017-Nov-15 18:00N 37°45' W 000°25'  

Dump ship's entire track history